createdAt,value
2022-12-19T00:00:43.101Z,7.55
2022-12-19T00:03:11.423Z,7.37
2022-12-19T00:05:40.914Z,6.80
2022-12-19T00:08:17.359Z,5.20
2022-12-19T00:10:56.053Z,6.90
2022-12-19T00:13:24.577Z,6.93
2022-12-19T00:15:53.182Z,8.68
2022-12-19T00:18:21.313Z,6.72
2022-12-19T00:21:01.088Z,11.15
2022-12-19T00:23:30.878Z,6.80
2022-12-19T00:26:25.857Z,8.10
2022-12-19T00:28:57.282Z,7.45
2022-12-19T00:31:26.734Z,8.40
2022-12-19T00:33:58.694Z,6.75
2022-12-19T00:36:30.745Z,6.20
2022-12-19T00:39:01.128Z,5.07
2022-12-19T00:41:34.111Z,6.97
2022-12-19T00:44:05.304Z,7.70
2022-12-19T00:46:36.145Z,6.90
2022-12-19T00:49:05.756Z,5.80
2022-12-19T00:51:37.907Z,9.18
2022-12-19T00:54:11.130Z,9.90
2022-12-19T00:56:39.814Z,10.55
2022-12-19T00:59:09.208Z,7.87
2022-12-19T01:01:40.314Z,9.07
2022-12-19T01:04:29.539Z,8.00
2022-12-19T01:07:02.037Z,7.60
2022-12-19T01:09:34.101Z,7.32
2022-12-19T01:12:24.494Z,6.40
2022-12-19T01:14:57.739Z,5.20
2022-12-19T01:17:43.560Z,8.55
2022-12-19T01:20:29.062Z,7.12
2022-12-19T01:22:59.934Z,7.90
2022-12-19T01:25:31.672Z,5.93
2022-12-19T01:28:01.166Z,5.85
2022-12-19T01:30:33.288Z,5.90
2022-12-19T01:33:02.290Z,6.75
2022-12-19T01:35:30.602Z,7.10
2022-12-19T01:38:07.918Z,5.87
2022-12-19T01:40:38.483Z,4.90
2022-12-19T01:43:07.257Z,7.85
2022-12-19T01:45:43.803Z,7.93
2022-12-19T01:48:32.030Z,8.55
2022-12-19T01:51:03.317Z,8.65
2022-12-19T01:53:45.806Z,8.80
2022-12-19T01:56:24.817Z,8.80
2022-12-19T01:59:05.599Z,7.60
2022-12-19T02:01:40.889Z,7.20
2022-12-19T02:04:25.841Z,6.87
2022-12-19T02:06:57.105Z,7.25
2022-12-19T02:09:25.934Z,6.75
2022-12-19T02:11:54.605Z,7.78
2022-12-19T02:14:22.636Z,6.78
2022-12-19T02:17:35.238Z,7.93
2022-12-19T02:20:29.348Z,7.97
2022-12-19T02:23:01.559Z,7.82
2022-12-19T02:25:51.273Z,6.43
2022-12-19T02:28:33.229Z,8.10
2022-12-19T02:31:21.456Z,6.37
2022-12-19T02:34:11.617Z,7.90
2022-12-19T02:37:09.513Z,6.97
2022-12-19T02:39:51.220Z,6.80
2022-12-19T02:42:32.179Z,7.40
2022-12-19T02:45:02.816Z,7.32
2022-12-19T02:47:34.366Z,6.22
2022-12-19T02:50:04.769Z,6.97
2022-12-19T02:52:32.905Z,6.60
2022-12-19T02:55:06.547Z,6.70
2022-12-19T02:58:05.391Z,6.68
2022-12-19T03:00:45.947Z,7.82
2022-12-19T03:03:45.741Z,8.02
2022-12-19T03:06:33.273Z,10.48
2022-12-19T03:09:17.485Z,8.32
2022-12-19T03:11:50.305Z,8.93
2022-12-19T03:14:21.569Z,8.70
2022-12-19T03:16:50.158Z,9.00
2022-12-19T03:19:18.436Z,10.90
2022-12-19T03:21:50.981Z,8.88
2022-12-19T03:24:19.986Z,8.93
2022-12-19T03:26:54.138Z,7.05
2022-12-19T03:29:34.576Z,8.98
2022-12-19T03:32:07.837Z,5.70
2022-12-19T03:34:50.586Z,6.57
2022-12-19T03:37:26.676Z,5.12
2022-12-19T03:39:59.802Z,5.93
2022-12-19T03:45:45.465Z,5.87
2022-12-19T03:48:31.341Z,6.25
2022-12-19T03:51:11.833Z,6.50
2022-12-19T03:53:59.338Z,6.47
2022-12-19T03:56:38.712Z,5.90
2022-12-19T04:00:11.126Z,6.10
2022-12-19T04:02:44.718Z,7.22
2022-12-19T04:05:21.759Z,7.90
2022-12-19T04:07:51.554Z,6.57
2022-12-19T04:10:23.239Z,7.97
2022-12-19T04:13:09.103Z,7.00
2022-12-19T04:15:49.406Z,6.45
2022-12-19T04:18:19.323Z,6.55
2022-12-19T04:21:02.390Z,6.25
2022-12-19T04:23:39.673Z,6.43
2022-12-19T04:26:09.301Z,3.25
2022-12-19T04:28:54.946Z,4.70
2022-12-19T04:31:23.961Z,3.58
2022-12-19T04:33:51.746Z,4.18
2022-12-19T04:36:19.836Z,3.08
2022-12-19T04:38:48.150Z,4.20
2022-12-19T04:41:15.980Z,4.00
2022-12-19T04:43:43.837Z,3.72
2022-12-19T04:46:15.680Z,2.87
2022-12-19T04:48:46.495Z,3.80
2022-12-19T04:51:16.871Z,4.68
2022-12-19T04:53:44.977Z,4.47
2022-12-19T04:56:13.084Z,4.32
2022-12-19T04:58:41.270Z,4.28
2022-12-19T05:01:09.835Z,3.45
2022-12-19T05:03:37.721Z,4.20
2022-12-19T05:06:13.123Z,3.95
2022-12-19T05:08:42.904Z,4.28
2022-12-19T05:11:19.173Z,4.05
2022-12-19T05:13:47.681Z,4.65
2022-12-19T05:16:16.327Z,4.10
2022-12-19T05:18:44.617Z,4.10
2022-12-19T05:21:12.477Z,4.05
2022-12-19T05:23:40.731Z,5.25
2022-12-19T05:26:08.775Z,4.72
2022-12-19T05:28:36.711Z,4.50
2022-12-19T05:31:13.240Z,4.12
2022-12-19T05:33:42.224Z,3.90
2022-12-19T05:36:11.923Z,5.07
2022-12-19T05:38:39.942Z,4.50
2022-12-19T05:41:10.179Z,5.43
2022-12-19T05:43:38.448Z,6.20
2022-12-19T05:46:07.757Z,3.60
2022-12-19T05:48:36.535Z,4.57
2022-12-19T05:51:05.154Z,5.07
2022-12-19T05:53:35.596Z,4.68
2022-12-19T05:56:11.423Z,5.20
2022-12-19T05:58:40.965Z,5.20
2022-12-19T06:01:14.172Z,3.85
2022-12-19T06:03:43.510Z,3.47
2022-12-19T06:06:14.091Z,4.45
2022-12-19T06:08:42.861Z,4.12
2022-12-19T06:11:12.968Z,4.07
2022-12-19T06:13:42.142Z,4.90
2022-12-19T06:16:19.474Z,4.53
2022-12-19T06:18:47.918Z,4.15
2022-12-19T06:21:22.236Z,4.25
2022-12-19T06:23:50.271Z,4.97
2022-12-19T06:26:20.869Z,3.08
2022-12-19T06:28:50.824Z,4.85
2022-12-19T06:31:21.213Z,5.28
2022-12-19T06:33:49.431Z,4.15
2022-12-19T06:36:23.688Z,5.10
2022-12-19T06:38:52.873Z,4.93
2022-12-19T06:41:39.759Z,4.45
2022-12-19T06:44:11.518Z,5.70
2022-12-19T06:46:41.852Z,4.50
2022-12-19T06:49:11.208Z,5.18
2022-12-19T06:51:39.378Z,5.03
2022-12-19T06:54:07.163Z,4.95
2022-12-19T06:56:40.738Z,5.87
2022-12-19T06:59:15.399Z,4.45
2022-12-19T07:01:44.819Z,4.45
2022-12-19T07:04:16.742Z,5.35
2022-12-19T07:06:49.328Z,6.60
2022-12-19T07:09:18.563Z,6.35
2022-12-19T07:11:46.793Z,6.20
2022-12-19T07:14:14.676Z,6.18
2022-12-19T07:16:42.824Z,6.82
2022-12-19T07:19:11.639Z,6.72
2022-12-19T07:21:39.631Z,6.40
2022-12-19T07:24:08.852Z,4.12
2022-12-19T07:26:37.634Z,5.85
2022-12-19T07:29:05.786Z,6.30
2022-12-19T07:31:36.168Z,6.85
2022-12-19T07:34:04.605Z,5.68
2022-12-19T07:36:32.712Z,5.55
2022-12-19T07:39:00.561Z,3.92
2022-12-19T07:41:28.765Z,5.15
2022-12-19T07:43:56.467Z,6.28
2022-12-19T07:46:24.365Z,6.97
2022-12-19T07:48:52.453Z,6.12
2022-12-19T07:51:20.262Z,4.60
2022-12-19T07:53:48.232Z,6.90
2022-12-19T07:56:17.726Z,6.35
2022-12-19T07:58:45.819Z,5.25
2022-12-19T08:01:13.823Z,5.28
2022-12-19T08:03:42.037Z,6.47
2022-12-19T08:06:10.098Z,4.90
2022-12-19T08:08:38.086Z,6.32
2022-12-19T08:11:08.540Z,5.35
2022-12-19T08:13:40.888Z,6.57
2022-12-19T08:16:13.052Z,5.82
2022-12-19T08:18:40.976Z,6.85
2022-12-19T08:21:09.822Z,7.07
2022-12-19T08:23:41.463Z,6.30
2022-12-19T08:26:12.975Z,6.70
2022-12-19T08:28:41.348Z,4.97
2022-12-19T08:31:17.935Z,5.50
2022-12-19T08:33:47.662Z,5.85
2022-12-19T08:36:19.155Z,4.43
2022-12-19T08:38:51.234Z,6.62
2022-12-19T08:41:19.821Z,5.68
2022-12-19T08:43:52.239Z,7.47
2022-12-19T08:46:22.395Z,6.75
2022-12-19T08:48:50.678Z,5.37
2022-12-19T08:51:18.890Z,4.97
2022-12-19T08:53:48.112Z,6.53
2022-12-19T08:56:19.195Z,6.12
2022-12-19T08:58:48.323Z,6.15
2022-12-19T09:01:24.197Z,4.82
2022-12-19T09:04:56.786Z,6.10
2022-12-19T09:06:40.987Z,5.30
2022-12-19T09:09:09.243Z,5.80
2022-12-19T09:11:45.747Z,6.78
2022-12-19T09:14:21.146Z,5.57
2022-12-19T09:16:49.626Z,5.97
2022-12-19T09:19:18.363Z,6.62
2022-12-19T09:21:46.324Z,7.47
2022-12-19T09:24:14.967Z,6.82
2022-12-19T09:26:44.381Z,6.72
2022-12-19T09:29:20.487Z,6.72
2022-12-19T09:31:55.768Z,9.00
2022-12-19T09:34:36.854Z,7.85
2022-12-19T09:37:08.965Z,6.20
2022-12-19T09:39:39.578Z,7.03
2022-12-19T09:42:32.096Z,5.87
2022-12-19T09:45:33.826Z,7.22
2022-12-19T09:48:03.030Z,7.53
2022-12-19T09:50:39.363Z,8.38
2022-12-19T09:53:40.290Z,7.53
2022-12-19T09:56:15.360Z,12.95
2022-12-19T09:58:50.031Z,11.27
2022-12-19T10:01:25.036Z,8.38
2022-12-19T10:04:10.641Z,10.27
2022-12-19T10:07:19.796Z,9.98
2022-12-19T10:12:12.718Z,4.87
2022-12-19T10:12:45.180Z,7.53
2022-12-19T10:15:26.490Z,8.18
2022-12-19T10:18:13.290Z,6.95
2022-12-19T10:21:36.978Z,7.05
2022-12-19T10:24:22.673Z,7.47
2022-12-19T10:26:53.652Z,5.75
2022-12-19T10:29:57.290Z,7.35
2022-12-19T10:32:28.901Z,7.05
2022-12-19T10:34:57.403Z,4.65
2022-12-19T10:37:40.678Z,5.87
2022-12-19T10:40:37.542Z,6.80
2022-12-19T10:43:33.623Z,7.32
2022-12-19T10:46:11.819Z,7.53
2022-12-19T10:48:39.950Z,5.95
2022-12-19T10:51:14.078Z,6.80
2022-12-19T10:53:52.903Z,6.15
2022-12-19T10:56:36.784Z,3.92
2022-12-19T10:59:20.833Z,6.32
2022-12-19T11:04:33.479Z,5.97
2022-12-19T11:07:04.187Z,4.85
2022-12-19T11:09:40.224Z,6.75
2022-12-19T11:15:30.672Z,6.22
2022-12-19T11:21:16.704Z,5.75
2022-12-19T11:29:17.225Z,6.53
2022-12-19T11:29:25.646Z,6.37
2022-12-19T11:30:38.847Z,7.70
2022-12-19T11:30:47.267Z,7.68
2022-12-19T11:32:42.091Z,6.70
2022-12-19T11:35:25.385Z,7.75
2022-12-19T11:38:08.718Z,8.82
2022-12-19T11:40:49.198Z,7.60
2022-12-19T11:43:46.619Z,9.23
2022-12-19T11:46:33.315Z,7.00
2022-12-19T11:49:12.123Z,6.60
2022-12-19T11:52:01.127Z,7.28
2022-12-19T11:54:48.837Z,7.40
2022-12-19T11:57:18.216Z,7.20
2022-12-19T11:59:47.209Z,8.35
2022-12-19T12:02:33.099Z,6.57
2022-12-19T12:05:04.095Z,7.00
2022-12-19T12:08:32.643Z,8.40
2022-12-19T12:12:15.642Z,8.98
2022-12-19T12:22:05.111Z,8.15
2022-12-19T12:30:15.540Z,8.60
2022-12-19T12:31:10.434Z,7.65
2022-12-19T12:31:47.165Z,7.37
2022-12-19T12:31:58.472Z,5.50
2022-12-19T12:32:02.059Z,8.23
2022-12-19T12:35:16.375Z,10.32
2022-12-19T12:39:16.042Z,6.60
2022-12-19T12:42:08.429Z,7.90
2022-12-19T12:44:45.116Z,7.57
2022-12-19T12:47:28.071Z,6.75
2022-12-19T12:50:02.625Z,7.40
2022-12-19T12:52:39.829Z,7.05
2022-12-19T12:55:29.036Z,8.70
2022-12-19T12:57:59.355Z,8.93
2022-12-19T13:00:32.298Z,8.45
2022-12-19T13:03:19.316Z,5.60
2022-12-19T13:05:47.113Z,8.07
2022-12-19T13:08:39.557Z,9.85
2022-12-19T13:11:53.994Z,7.22
2022-12-19T13:14:40.903Z,8.95
2022-12-19T13:17:12.766Z,6.30
2022-12-19T13:20:21.543Z,6.35
2022-12-19T13:22:59.190Z,9.75
2022-12-19T13:25:27.383Z,8.05
2022-12-19T13:28:19.470Z,6.93
2022-12-19T13:31:18.690Z,8.73
2022-12-19T13:33:55.884Z,7.43
2022-12-19T13:39:57.595Z,8.65
2022-12-19T13:40:11.203Z,6.40
2022-12-19T13:43:19.132Z,8.75
2022-12-19T13:45:55.306Z,10.88
2022-12-19T13:48:30.803Z,9.38
2022-12-19T13:51:05.162Z,9.65
2022-12-19T13:53:33.604Z,8.88
2022-12-19T13:56:07.154Z,8.02
2022-12-19T13:58:38.992Z,7.10
2022-12-19T14:01:27.783Z,7.05
2022-12-19T14:04:07.734Z,6.43
2022-12-19T14:06:50.775Z,7.50
2022-12-19T14:11:27.310Z,8.98
2022-12-19T14:13:50.926Z,10.20
2022-12-19T14:15:52.464Z,8.85
2022-12-19T14:18:44.993Z,8.15
2022-12-19T14:22:06.033Z,13.25
2022-12-19T14:24:21.896Z,11.27
2022-12-19T14:28:17.163Z,14.45
2022-12-19T14:30:30.584Z,9.23
2022-12-19T14:33:43.987Z,9.85
2022-12-19T14:36:10.283Z,7.68
2022-12-19T14:39:27.689Z,10.45
2022-12-19T14:41:47.649Z,10.85
2022-12-19T14:54:06.892Z,8.00
2022-12-19T14:54:23.411Z,8.02
2022-12-19T14:54:24.919Z,10.23
2022-12-19T14:54:47.650Z,10.38
2022-12-19T14:59:42.479Z,10.45
2022-12-19T15:02:27.998Z,11.45
2022-12-19T15:05:08.140Z,8.20
2022-12-19T15:07:42.625Z,10.10
2022-12-19T15:11:04.816Z,9.30
2022-12-19T15:14:58.688Z,9.70
2022-12-19T15:16:36.512Z,11.57
2022-12-19T15:19:11.663Z,11.68
2022-12-19T15:21:39.506Z,11.45
2022-12-19T15:24:08.861Z,9.45
2022-12-19T15:26:47.905Z,12.37
2022-12-19T15:29:21.651Z,15.23
2022-12-19T15:31:50.577Z,13.52
2022-12-19T15:34:41.677Z,11.43
2022-12-19T15:37:16.385Z,12.90
2022-12-19T15:39:45.626Z,20.92
2022-12-19T15:42:23.234Z,19.10
2022-12-19T15:44:54.135Z,12.70
2022-12-19T15:47:33.794Z,13.45
2022-12-19T15:50:14.558Z,14.77
2022-12-19T15:52:42.482Z,11.40
2022-12-19T15:55:15.781Z,10.23
2022-12-19T15:57:58.929Z,13.55
2022-12-19T16:00:31.977Z,8.70
2022-12-19T16:05:48.817Z,9.90
2022-12-19T16:08:20.641Z,11.68
2022-12-19T16:11:00.980Z,11.63
2022-12-19T16:13:32.627Z,8.85
2022-12-19T16:16:01.863Z,9.95
2022-12-19T16:18:30.245Z,7.80
2022-12-19T16:20:58.070Z,7.68
2022-12-19T16:23:26.379Z,9.35
2022-12-19T16:25:55.130Z,9.75
2022-12-19T16:28:29.443Z,7.45
2022-12-19T16:30:59.479Z,10.57
2022-12-19T16:33:30.015Z,8.80
2022-12-19T16:36:07.141Z,8.80
2022-12-19T16:38:36.550Z,10.63
2022-12-19T16:41:05.160Z,6.43
2022-12-19T16:43:37.599Z,9.70
2022-12-19T16:48:38.310Z,9.45
2022-12-19T16:51:17.436Z,10.55
2022-12-19T16:53:48.385Z,10.48
2022-12-19T16:56:26.365Z,10.00
2022-12-19T16:58:55.639Z,11.10
2022-12-19T17:01:24.084Z,8.35
2022-12-19T17:03:52.121Z,10.95
2022-12-19T17:06:21.565Z,10.85
2022-12-19T17:08:50.006Z,8.07
2022-12-19T17:11:24.771Z,9.65
2022-12-19T17:14:00.834Z,8.82
2022-12-19T17:16:30.368Z,11.77
2022-12-19T17:18:59.320Z,11.85
2022-12-19T17:21:27.169Z,9.18
2022-12-19T17:23:55.038Z,8.13
2022-12-19T17:26:23.461Z,8.57
2022-12-19T17:28:51.484Z,8.18
2022-12-19T17:31:38.300Z,10.25
2022-12-19T17:34:13.602Z,10.65
2022-12-19T17:36:41.692Z,9.27
2022-12-19T17:39:24.969Z,9.75
2022-12-19T17:42:07.206Z,8.35
2022-12-19T17:44:35.412Z,9.00
2022-12-19T17:47:05.491Z,9.05
2022-12-19T17:49:35.753Z,8.35
2022-12-19T17:52:16.309Z,7.25
2022-12-19T17:54:44.420Z,10.32
2022-12-19T17:57:15.633Z,9.43
2022-12-19T17:59:43.796Z,8.10
2022-12-19T18:02:25.111Z,10.25
2022-12-19T18:04:54.016Z,10.68
2022-12-19T18:07:22.059Z,8.77
2022-12-19T18:09:50.112Z,7.80
2022-12-19T18:12:18.656Z,8.35
2022-12-19T18:14:46.441Z,10.88
2022-12-19T18:17:21.101Z,8.75
2022-12-19T18:19:49.346Z,8.45
2022-12-19T18:22:17.326Z,8.85
2022-12-19T18:24:45.243Z,8.02
2022-12-19T18:27:13.541Z,7.25
2022-12-19T18:29:41.504Z,8.48
2022-12-19T18:32:19.217Z,7.47
2022-12-19T18:34:47.532Z,8.77
2022-12-19T18:37:16.259Z,7.15
2022-12-19T18:39:44.486Z,8.38
2022-12-19T18:42:21.507Z,6.45
2022-12-19T18:44:49.474Z,6.85
2022-12-19T18:47:23.687Z,7.60
2022-12-19T18:49:54.720Z,7.78
2022-12-19T18:52:23.037Z,8.52
2022-12-19T18:54:51.995Z,6.12
2022-12-19T18:57:20.627Z,7.28
2022-12-19T18:59:50.457Z,8.90
2022-12-19T19:02:27.913Z,8.57
2022-12-19T19:04:56.420Z,8.00
2022-12-19T19:07:24.347Z,7.93
2022-12-19T19:09:52.295Z,7.20
2022-12-19T19:12:22.539Z,8.30
2022-12-19T19:14:50.446Z,5.95
2022-12-19T19:17:27.174Z,7.50
2022-12-19T19:20:01.346Z,7.37
2022-12-19T19:22:31.159Z,8.85
2022-12-19T19:25:00.000Z,7.65
2022-12-19T19:27:27.881Z,7.85
2022-12-19T19:29:55.723Z,9.85
2022-12-19T19:32:24.247Z,9.85
2022-12-19T19:34:52.780Z,6.47
2022-12-19T19:37:21.316Z,7.90
2022-12-19T19:39:52.390Z,7.53
2022-12-19T19:42:20.408Z,8.32
2022-12-19T19:44:49.150Z,8.85
2022-12-19T19:47:17.572Z,7.85
2022-12-19T19:49:45.469Z,6.68
2022-12-19T19:52:13.263Z,7.55
2022-12-19T19:54:41.589Z,7.82
2022-12-19T19:57:10.064Z,6.12
2022-12-19T19:59:37.998Z,6.93
2022-12-19T20:02:11.489Z,6.40
2022-12-19T20:04:40.262Z,6.20
2022-12-19T20:07:08.187Z,8.05
2022-12-19T20:09:36.157Z,6.10
2022-12-19T20:12:04.489Z,7.05
2022-12-19T20:14:32.292Z,5.00
2022-12-19T20:16:59.977Z,5.90
2022-12-19T20:19:28.042Z,7.50
2022-12-19T20:21:55.793Z,5.57
2022-12-19T20:24:23.634Z,5.28
2022-12-19T20:26:51.732Z,6.85
2022-12-19T20:29:19.392Z,6.18
2022-12-19T20:31:47.272Z,6.05
2022-12-19T20:34:16.298Z,7.05
2022-12-19T20:36:44.125Z,4.75
2022-12-19T20:39:11.949Z,5.75
2022-12-19T20:41:40.218Z,6.53
2022-12-19T20:44:08.028Z,6.30
2022-12-19T20:46:35.979Z,4.47
2022-12-19T20:49:05.127Z,3.83
2022-12-19T20:51:32.855Z,4.75
2022-12-19T20:54:00.659Z,3.72
2022-12-19T20:56:28.915Z,4.72
2022-12-19T20:58:57.222Z,5.85
2022-12-19T21:01:25.823Z,4.50
2022-12-19T21:03:54.396Z,4.70
2022-12-19T21:06:25.679Z,3.35
2022-12-19T21:08:55.372Z,4.62
2022-12-19T21:11:25.334Z,4.28
2022-12-19T21:13:53.778Z,4.00
2022-12-19T21:16:22.656Z,4.30
2022-12-19T21:18:51.601Z,5.78
2022-12-19T21:21:23.896Z,4.93
2022-12-19T21:23:53.160Z,4.75
2022-12-19T21:26:22.096Z,4.65
2022-12-19T21:28:49.972Z,4.28
2022-12-19T21:31:26.790Z,4.45
2022-12-19T21:33:56.429Z,4.45
2022-12-19T21:36:26.102Z,3.67
2022-12-19T21:38:56.113Z,5.12
2022-12-19T21:41:24.497Z,3.67
2022-12-19T21:43:55.587Z,5.18
2022-12-19T21:46:26.014Z,4.85
2022-12-19T21:48:55.976Z,4.68
2022-12-19T21:51:26.977Z,3.67
2022-12-19T21:53:57.051Z,3.83
2022-12-19T21:56:27.732Z,3.97
2022-12-19T21:59:04.241Z,5.40
2022-12-19T22:01:33.534Z,7.15
2022-12-19T22:04:09.199Z,5.30
2022-12-19T22:06:39.240Z,6.37
2022-12-19T22:09:09.986Z,5.70
2022-12-19T22:11:41.060Z,6.55
2022-12-19T22:14:11.010Z,5.65
2022-12-19T22:16:39.344Z,6.78
2022-12-19T22:19:07.902Z,5.30
2022-12-19T22:21:37.286Z,4.72
2022-12-19T22:24:05.501Z,5.03
2022-12-19T22:26:33.390Z,5.50
2022-12-19T22:29:01.626Z,5.87
2022-12-19T22:31:31.987Z,6.65
2022-12-19T22:34:05.845Z,6.43
2022-12-19T22:36:39.209Z,5.22
2022-12-19T22:39:09.790Z,7.15
2022-12-19T22:41:39.008Z,5.60
2022-12-19T22:44:08.110Z,5.10
2022-12-19T22:46:37.994Z,4.90
2022-12-19T22:49:09.069Z,5.70
2022-12-19T22:51:38.202Z,4.50
2022-12-19T22:54:06.889Z,4.00
2022-12-19T22:56:35.860Z,5.72
2022-12-19T22:59:07.432Z,5.20
2022-12-19T23:01:45.084Z,5.93
2022-12-19T23:04:16.681Z,5.05
2022-12-19T23:06:45.044Z,5.32
2022-12-19T23:09:16.360Z,4.65
2022-12-19T23:11:47.663Z,4.45
2022-12-19T23:14:20.242Z,3.92
2022-12-19T23:16:51.524Z,4.70
2022-12-19T23:19:22.659Z,5.95
2022-12-19T23:21:50.804Z,4.20
2022-12-19T23:24:19.146Z,2.85
2022-12-19T23:26:46.975Z,6.45
2022-12-19T23:29:16.471Z,4.82
2022-12-19T23:31:46.741Z,5.03
2022-12-19T23:34:15.916Z,5.40
2022-12-19T23:37:10.422Z,4.93
2022-12-19T23:39:32.938Z,4.25
2022-12-19T23:42:01.235Z,5.07
2022-12-19T23:44:29.412Z,4.35
2022-12-19T23:47:02.993Z,4.18
2022-12-19T23:49:33.950Z,5.45
2022-12-19T23:52:01.959Z,5.00
2022-12-19T23:54:30.000Z,5.37
2022-12-19T23:56:58.228Z,4.28
2022-12-19T23:59:26.147Z,4.82
